Time;durP1;ratioP1;P1;durP2;ratioP2;P2;SDS_P1;SDS_P2;PMS_P1;PMS_P2;Temp;Humidity;BMP_temperature;BMP_pressure;BME280_temperature;BME280_humidity;BME280_pressure;Samples;Min_cycle;Max_cycle;Signal;HPM_P1;HPM_P2
2022/03/30 00:01:27;;;;;;;27.88;8.30;;;11.90;45.20;;;;;;4957463;28;20117;-76
2022/03/30 00:03:53;;;;;;;35.00;8.35;;;11.80;44.90;;;;;;4974815;28;20034;-76
2022/03/30 00:06:19;;;;;;;29.30;7.63;;;11.90;44.90;;;;;;4956970;28;20048;-76
2022/03/30 00:08:44;;;;;;;39.28;8.23;;;11.90;44.70;;;;;;4956913;28;20062;-76
2022/03/30 00:11:11;;;;;;;38.80;9.20;;;11.90;44.50;;;;;;4957892;28;20096;-76
2022/03/30 00:13:38;;;;;;;32.03;7.78;;;11.90;44.30;;;;;;4956625;28;20606;-76
2022/03/30 00:16:05;;;;;;;31.55;7.72;;;12.00;43.90;;;;;;4957501;28;20101;-76
2022/03/30 00:18:32;;;;;;;35.00;8.00;;;12.00;43.80;;;;;;4957096;28;20022;-76
2022/03/30 00:20:57;;;;;;;36.60;7.93;;;12.00;43.80;;;;;;4957398;28;20035;-77
2022/03/30 00:23:23;;;;;;;29.33;7.15;;;12.10;43.80;;;;;;4957649;28;20023;-77
2022/03/30 00:25:48;;;;;;;35.42;8.23;;;12.10;43.80;;;;;;4957448;28;20026;-75
2022/03/30 00:28:14;;;;;;;26.58;7.18;;;12.10;43.80;;;;;;4958015;28;20035;-76
2022/03/30 00:30:40;;;;;;;35.70;7.95;;;12.10;43.70;;;;;;4957680;28;20078;-75
2022/03/30 00:33:06;;;;;;;32.97;8.13;;;12.10;43.30;;;;;;4957388;28;20027;-75
2022/03/30 00:35:31;;;;;;;30.95;6.75;;;12.10;43.20;;;;;;4957446;28;20050;-76
2022/03/30 00:37:57;;;;;;;24.83;6.93;;;12.20;43.20;;;;;;4957308;28;20046;-76
2022/03/30 00:40:23;;;;;;;29.70;7.57;;;12.20;43.20;;;;;;4957658;28;20022;-76
2022/03/30 00:42:49;;;;;;;33.00;6.80;;;12.20;42.20;;;;;;4957265;28;20031;-76
2022/03/30 00:45:17;;;;;;;36.72;7.97;;;12.20;42.00;;;;;;4957578;28;20042;-76
2022/03/30 00:47:44;;;;;;;30.00;7.30;;;12.20;42.80;;;;;;4957375;28;20522;-76
2022/03/30 00:50:13;;;;;;;41.13;8.35;;;12.20;43.00;;;;;;4957651;28;20034;-76
2022/03/30 00:52:39;;;;;;;33.88;8.52;;;12.10;44.00;;;;;;4957375;28;20518;-76
2022/03/30 00:55:06;;;;;;;32.65;7.40;;;12.20;43.40;;;;;;4957429;28;20026;-76
2022/03/30 00:57:33;;;;;;;27.70;6.72;;;12.20;43.50;;;;;;4957387;28;20031;-76
2022/03/30 00:59:59;;;;;;;28.45;8.18;;;12.20;43.70;;;;;;4957132;28;20023;-76
2022/03/30 01:02:25;;;;;;;37.45;8.75;;;12.20;44.50;;;;;;4957146;28;20023;-75
2022/03/30 01:04:52;;;;;;;31.25;8.65;;;12.10;45.20;;;;;;4956862;28;20023;-75
2022/03/30 01:07:17;;;;;;;24.77;7.57;;;12.10;45.30;;;;;;4957135;28;20438;-75
2022/03/30 01:09:43;;;;;;;27.10;8.20;;;12.00;46.00;;;;;;4956969;28;20027;-76
2022/03/30 01:12:10;;;;;;;37.28;7.63;;;12.00;45.40;;;;;;4956508;28;20031;-74
2022/03/30 01:14:36;;;;;;;46.70;9.55;;;12.00;45.70;;;;;;4957244;28;20027;-75
2022/03/30 01:17:02;;;;;;;32.88;7.75;;;12.00;45.80;;;;;;4956875;28;20134;-74
2022/03/30 01:19:29;;;;;;;28.42;8.10;;;12.00;46.00;;;;;;4960605;28;20058;-75
2022/03/30 01:21:55;;;;;;;31.35;8.00;;;11.90;46.20;;;;;;4961887;28;20078;-74
2022/03/30 01:24:21;;;;;;;26.38;7.68;;;11.90;46.40;;;;;;4957320;28;20023;-75
2022/03/30 01:26:47;;;;;;;27.75;7.57;;;11.90;46.70;;;;;;4959592;28;20472;-74
2022/03/30 01:34:45;;;;;;;29.67;8.50;;;11.80;47.10;;;;;;4983436;28;20082;-75
2022/03/30 01:37:12;;;;;;;36.25;7.75;;;11.70;46.90;;;;;;4962313;28;20026;-76
2022/03/30 01:39:39;;;;;;;30.20;7.53;;;11.70;46.90;;;;;;4960592;28;20027;-76
2022/03/30 01:42:05;;;;;;;32.65;8.05;;;11.70;46.90;;;;;;4960690;28;20130;-76
2022/03/30 01:44:31;;;;;;;32.45;8.15;;;11.70;47.10;;;;;;4960570;28;20522;-76
2022/03/30 01:46:57;;;;;;;37.53;8.15;;;11.70;47.50;;;;;;4960214;28;20039;-75
2022/03/30 01:49:23;;;;;;;25.45;7.50;;;11.60;48.40;;;;;;4960494;28;20019;-78
2022/03/30 01:51:49;;;;;;;33.30;8.15;;;11.60;49.20;;;;;;4960322;28;20034;-77
2022/03/30 01:54:20;;;;;;;37.67;8.73;;;11.60;48.60;;;;;;4960196;28;20086;-78
2022/03/30 01:56:46;;;;;;;29.10;7.65;;;11.60;49.50;;;;;;4960224;28;20023;-77
2022/03/30 01:59:12;;;;;;;30.67;8.68;;;11.60;49.70;;;;;;4960425;28;20034;-77
2022/03/30 02:01:38;;;;;;;34.28;8.40;;;11.50;51.20;;;;;;4960221;28;20023;-77
2022/03/30 02:04:06;;;;;;;38.35;8.98;;;11.50;51.00;;;;;;4960160;28;20030;-78
2022/03/30 02:06:32;;;;;;;43.08;9.15;;;11.40;51.80;;;;;;4960410;28;20047;-75
2022/03/30 02:08:58;;;;;;;29.48;8.82;;;11.30;52.00;;;;;;4960269;28;20037;-75
2022/03/30 02:11:24;;;;;;;30.60;7.60;;;11.30;52.20;;;;;;4960133;28;20117;-75
2022/03/30 02:13:50;;;;;;;32.80;8.77;;;11.30;52.50;;;;;;4960314;28;20022;-77
2022/03/30 02:16:16;;;;;;;34.47;8.88;;;11.30;52.80;;;;;;4959768;28;20399;-77
2022/03/30 02:18:42;;;;;;;30.48;8.05;;;11.30;53.20;;;;;;4960026;28;20415;-77
2022/03/30 02:21:07;;;;;;;26.48;7.28;;;11.30;53.40;;;;;;4959852;28;20031;-77
2022/03/30 02:23:33;;;;;;;37.65;9.15;;;11.30;53.90;;;;;;4959680;28;20037;-76
2022/03/30 02:25:58;;;;;;;32.10;7.72;;;11.30;53.10;;;;;;4959972;28;20125;-76
2022/03/30 02:28:24;;;;;;;30.60;7.28;;;11.40;51.20;;;;;;4959721;28;20023;-75
2022/03/30 02:30:49;;;;;;;27.85;7.63;;;11.50;51.40;;;;;;4959624;28;20031;-76
2022/03/30 02:33:15;;;;;;;26.55;7.53;;;11.50;52.20;;;;;;4959635;28;20063;-76
2022/03/30 02:35:40;;;;;;;28.35;8.02;;;11.50;53.00;;;;;;4959571;28;20030;-77
2022/03/30 02:38:06;;;;;;;29.77;7.80;;;11.50;53.00;;;;;;4943262;28;20480;-76
2022/03/30 02:40:32;;;;;;;32.55;7.53;;;11.60;52.30;;;;;;4959981;28;20023;-77
2022/03/30 02:42:59;;;;;;;31.63;8.57;;;11.50;53.20;;;;;;4976546;28;20031;-76
2022/03/30 02:45:25;;;;;;;22.50;7.20;;;11.50;53.10;;;;;;4943528;28;20395;-77
2022/03/30 02:50:35;;;;;;;32.80;8.60;;;11.60;53.80;;;;;;4976946;28;20109;-78
2022/03/30 02:53:00;;;;;;;35.50;7.80;;;11.60;55.00;;;;;;4959226;28;20118;-76
2022/03/30 02:55:26;;;;;;;30.30;6.68;;;11.60;55.60;;;;;;4959222;28;20118;-75
2022/03/30 02:57:51;;;;;;;29.75;6.80;;;11.60;55.60;;;;;;4959083;28;20027;-77
2022/03/30 03:00:17;;;;;;;35.28;8.27;;;11.60;56.30;;;;;;4959385;28;20491;-75
2022/03/30 03:02:43;;;;;;;32.55;8.38;;;11.60;55.50;;;;;;4959131;28;20033;-75
2022/03/30 03:05:08;;;;;;;39.88;7.50;;;11.60;55.30;;;;;;4959141;28;20399;-79
2022/03/30 03:07:35;;;;;;;36.95;8.57;;;11.50;55.20;;;;;;4959253;28;20089;-77
2022/03/30 03:10:01;;;;;;;33.08;8.60;;;11.50;55.90;;;;;;4958669;28;20085;-76
2022/03/30 03:12:27;;;;;;;28.08;7.25;;;11.50;57.20;;;;;;4958643;28;20054;-75
2022/03/30 03:14:52;;;;;;;28.83;7.47;;;11.40;57.40;;;;;;4959042;28;20054;-76
2022/03/30 03:17:18;;;;;;;29.30;7.55;;;11.50;57.80;;;;;;4959013;28;20085;-75
2022/03/30 03:19:45;;;;;;;27.17;7.63;;;11.50;58.00;;;;;;4958794;28;20027;-76
2022/03/30 03:22:11;;;;;;;27.10;7.55;;;11.50;59.10;;;;;;4959118;28;20022;-75
2022/03/30 03:24:36;;;;;;;37.72;8.23;;;11.50;61.00;;;;;;4958466;28;20435;-76
2022/03/30 03:27:02;;;;;;;24.40;6.85;;;11.50;63.60;;;;;;4942701;28;20062;-76
2022/03/30 03:29:28;;;;;;;22.70;8.38;;;11.50;65.20;;;;;;4958726;28;20118;-77
2022/03/30 03:31:53;;;;;;;28.50;7.53;;;11.40;66.10;;;;;;4958609;28;20034;-76
2022/03/30 03:34:19;;;;;;;28.92;7.38;;;11.40;66.80;;;;;;4958436;28;20030;-76
2022/03/30 03:36:44;;;;;;;24.13;7.03;;;11.30;67.20;;;;;;4958278;28;20122;-76
2022/03/30 03:39:10;;;;;;;35.95;8.70;;;11.30;67.70;;;;;;4958673;28;20077;-76
2022/03/30 03:41:36;;;;;;;31.20;7.60;;;11.30;69.60;;;;;;4958408;28;20026;-79
2022/03/30 03:44:03;;;;;;;34.85;8.25;;;11.10;69.80;;;;;;4958130;28;20434;-76
2022/03/30 03:46:29;;;;;;;37.13;8.60;;;11.00;72.40;;;;;;4958482;28;20133;-77
2022/03/30 03:48:55;;;;;;;32.53;9.65;;;10.90;73.10;;;;;;4957412;28;20067;-77
2022/03/30 03:51:21;;;;;;;36.55;8.68;;;10.80;75.00;;;;;;4958622;28;20026;-77
2022/03/30 03:53:47;;;;;;;26.38;8.52;;;10.70;74.80;;;;;;4958160;28;20026;-76
2022/03/30 03:56:12;;;;;;;28.00;8.27;;;10.60;75.90;;;;;;4957932;28;20033;-76
2022/03/30 03:58:38;;;;;;;33.33;8.35;;;10.60;76.00;;;;;;4957646;28;20648;-76
2022/03/30 04:01:04;;;;;;;25.30;8.93;;;10.60;76.20;;;;;;4957990;28;20046;-76
2022/03/30 04:03:30;;;;;;;32.10;8.25;;;10.60;76.30;;;;;;4957798;28;20023;-76
2022/03/30 04:05:55;;;;;;;21.75;8.05;;;10.60;76.60;;;;;;4957844;28;20395;-77
2022/03/30 04:08:21;;;;;;;30.40;8.55;;;10.60;76.70;;;;;;4958115;28;20030;-77
2022/03/30 04:10:47;;;;;;;38.17;9.45;;;10.60;76.90;;;;;;4957890;28;20033;-76
2022/03/30 04:13:13;;;;;;;27.40;7.47;;;10.60;76.90;;;;;;4957867;28;20031;-76
2022/03/30 04:15:39;;;;;;;30.60;8.75;;;10.60;76.80;;;;;;4957800;28;20051;-76
2022/03/30 04:18:05;;;;;;;32.90;9.43;;;10.50;77.40;;;;;;4957946;28;20031;-76
2022/03/30 04:20:31;;;;;;;31.60;8.98;;;10.50;77.40;;;;;;4961439;28;20094;-76
2022/03/30 04:22:57;;;;;;;26.42;9.05;;;10.50;77.60;;;;;;4974491;28;20518;-77
2022/03/30 04:25:23;;;;;;;24.83;8.35;;;10.50;77.90;;;;;;4969976;28;20030;-75
2022/03/30 04:27:50;;;;;;;27.50;9.15;;;10.50;78.30;;;;;;4958048;28;20120;-75
2022/03/30 04:30:18;;;;;;;36.17;9.63;;;10.40;78.50;;;;;;4974977;28;20027;-75
2022/03/30 04:32:44;;;;;;;29.92;9.23;;;10.40;79.10;;;;;;4957387;28;20027;-77
2022/03/30 04:35:11;;;;;;;25.15;8.00;;;10.30;79.30;;;;;;4957607;28;20033;-78
2022/03/30 04:37:38;;;;;;;24.40;8.23;;;10.40;79.40;;;;;;4957503;28;20022;-75
2022/03/30 04:40:04;;;;;;;27.52;9.20;;;10.30;79.40;;;;;;4957439;28;20026;-78
2022/03/30 04:42:30;;;;;;;40.85;10.18;;;10.30;79.70;;;;;;4956608;28;20054;-75
2022/03/30 04:44:55;;;;;;;34.38;9.43;;;10.40;80.10;;;;;;4958197;28;20077;-76
2022/03/30 04:47:21;;;;;;;34.40;9.25;;;10.30;80.00;;;;;;4959127;28;20027;-76
2022/03/30 04:49:47;;;;;;;34.42;9.82;;;10.30;80.70;;;;;;4960242;28;20380;-74
2022/03/30 04:52:13;;;;;;;33.35;8.70;;;10.20;80.80;;;;;;4957659;28;20027;-79
2022/03/30 04:54:38;;;;;;;39.70;9.40;;;10.10;80.70;;;;;;4957007;28;20041;-78
2022/03/30 04:57:04;;;;;;;27.70;9.57;;;10.10;80.70;;;;;;4957158;28;20051;-78
2022/03/30 04:59:30;;;;;;;34.53;9.30;;;10.10;80.30;;;;;;4957216;28;20085;-77
2022/03/30 05:01:56;;;;;;;46.72;9.55;;;10.10;80.80;;;;;;4957363;28;20029;-78
2022/03/30 05:04:22;;;;;;;35.42;9.00;;;10.00;81.30;;;;;;4956926;28;20062;-79
2022/03/30 05:06:48;;;;;;;30.02;8.38;;;10.00;81.60;;;;;;4957228;28;20073;-79
2022/03/30 05:09:15;;;;;;;31.77;8.75;;;10.10;82.10;;;;;;4978436;28;20023;-77
2022/03/30 05:11:40;;;;;;;28.70;8.38;;;10.10;81.30;;;;;;4956911;28;20023;-79
2022/03/30 05:14:06;;;;;;;25.70;8.80;;;10.00;81.30;;;;;;4957530;28;20175;-78
2022/03/30 05:16:33;;;;;;;32.88;8.85;;;10.10;81.50;;;;;;4956513;28;20503;-78
2022/03/30 05:19:02;;;;;;;29.45;8.70;;;10.10;81.60;;;;;;4957012;28;20027;-78
2022/03/30 05:21:29;;;;;;;24.38;8.10;;;10.10;81.70;;;;;;4956839;28;20029;-78
2022/03/30 05:23:55;;;;;;;24.58;7.22;;;10.10;81.40;;;;;;4974094;28;20015;-78
2022/03/30 05:26:21;;;;;;;27.40;8.85;;;10.10;81.50;;;;;;4956965;28;20107;-77
2022/03/30 05:28:46;;;;;;;29.83;7.78;;;10.10;82.00;;;;;;4960669;28;20436;-76
2022/03/30 05:31:12;;;;;;;44.95;9.65;;;10.00;79.00;;;;;;4957089;28;20023;-77
2022/03/30 05:33:37;;;;;;;38.40;8.57;;;9.90;78.50;;;;;;4956657;28;20498;-76
2022/03/30 05:36:04;;;;;;;30.27;8.50;;;9.90;78.90;;;;;;4956887;28;20058;-77
2022/03/30 05:38:30;;;;;;;32.40;9.27;;;9.90;79.20;;;;;;4956827;28;20058;-77
2022/03/30 05:40:56;;;;;;;31.13;8.13;;;9.90;79.40;;;;;;4956708;28;20042;-77
2022/03/30 05:43:22;;;;;;;37.20;8.32;;;9.80;79.10;;;;;;4956458;28;20022;-77
2022/03/30 05:45:48;;;;;;;33.83;8.60;;;9.70;79.40;;;;;;4956742;28;20030;-78
2022/03/30 05:48:15;;;;;;;42.30;9.07;;;9.60;79.40;;;;;;4956884;28;20027;-78
2022/03/30 05:50:41;;;;;;;41.70;9.02;;;9.60;79.90;;;;;;4973690;28;20023;-78
2022/03/30 05:53:07;;;;;;;33.85;8.50;;;9.50;79.80;;;;;;4956418;28;20037;-77
2022/03/30 05:55:33;;;;;;;33.15;8.13;;;9.50;79.90;;;;;;4956932;28;20374;-79
2022/03/30 05:58:00;;;;;;;36.17;8.60;;;9.50;80.20;;;;;;4973785;28;20035;-77
2022/03/30 06:00:28;;;;;;;36.17;8.10;;;9.50;80.20;;;;;;4956404;28;20030;-80
2022/03/30 06:02:54;;;;;;;32.10;9.00;;;9.50;80.40;;;;;;4956370;28;20031;-79
2022/03/30 06:05:19;;;;;;;56.65;8.68;;;9.60;79.50;;;;;;4956331;28;20043;-79
2022/03/30 06:07:45;;;;;;;40.38;8.32;;;9.60;79.50;;;;;;4973735;28;20066;-79
2022/03/30 06:10:11;;;;;;;31.15;9.00;;;9.60;79.50;;;;;;4973595;28;20105;-79
2022/03/30 06:12:37;;;;;;;34.83;9.32;;;9.70;80.00;;;;;;4958622;28;20026;-79
2022/03/30 06:15:04;;;;;;;28.13;7.40;;;9.80;80.00;;;;;;4959622;28;20027;-79
2022/03/30 06:17:29;;;;;;;24.20;7.05;;;9.90;79.10;;;;;;4959711;28;20058;-78
2022/03/30 06:19:57;;;;;;;33.00;8.93;;;9.90;78.70;;;;;;4960133;28;20058;-77
2022/03/30 06:22:25;;;;;;;34.67;9.05;;;10.10;78.80;;;;;;4959740;28;20027;-78
2022/03/30 06:24:52;;;;;;;33.53;9.32;;;10.10;79.30;;;;;;4977196;28;20106;-77
2022/03/30 06:27:17;;;;;;;25.48;8.57;;;10.20;79.50;;;;;;4959765;28;20027;-78
2022/03/30 06:29:43;;;;;;;37.35;8.50;;;10.20;79.50;;;;;;4959429;28;20026;-77
2022/03/30 06:32:09;;;;;;;26.20;8.07;;;10.30;79.30;;;;;;4976835;28;20026;-77
2022/03/30 06:34:36;;;;;;;34.38;8.73;;;10.30;79.00;;;;;;4959750;28;20023;-77
2022/03/30 06:37:02;;;;;;;29.55;8.55;;;10.30;78.90;;;;;;4959770;28;20023;-79
2022/03/30 06:39:28;;;;;;;23.77;7.68;;;10.30;78.50;;;;;;4977190;28;20030;-76
2022/03/30 06:41:55;;;;;;;29.85;6.97;;;10.40;78.50;;;;;;4959782;28;20372;-75
2022/03/30 06:44:21;;;;;;;27.80;7.45;;;10.30;78.60;;;;;;4976909;28;20034;-77
2022/03/30 06:46:47;;;;;;;32.63;8.15;;;10.30;78.80;;;;;;4959302;28;20034;-73
2022/03/30 06:49:13;;;;;;;32.47;8.77;;;10.40;79.00;;;;;;4959416;28;20033;-74
2022/03/30 06:51:39;;;;;;;35.58;7.47;;;10.40;78.90;;;;;;4959822;28;20041;-79
2022/03/30 06:54:05;;;;;;;28.00;7.53;;;10.40;78.90;;;;;;4959758;28;20026;-78
2022/03/30 06:56:31;;;;;;;28.23;7.57;;;10.40;79.00;;;;;;4944182;28;20463;-78
2022/03/30 06:58:57;;;;;;;27.50;7.38;;;10.40;78.90;;;;;;4959563;28;20058;-77
2022/03/30 07:01:23;;;;;;;31.20;9.15;;;10.50;78.90;;;;;;4976606;28;20047;-77
2022/03/30 07:03:50;;;;;;;28.10;8.30;;;10.50;78.80;;;;;;4959302;28;20081;-77
2022/03/30 07:06:16;;;;;;;31.10;8.25;;;10.50;78.60;;;;;;4959194;28;20035;-77
2022/03/30 07:11:30;;;;;;;31.02;7.45;;;10.80;87.10;;;;;;4948229;28;20037;-73
2022/03/30 07:13:58;;;;;;;41.75;8.75;;;11.10;82.20;;;;;;4958880;28;20030;-75
2022/03/30 07:16:24;;;;;;;32.25;7.18;;;11.40;77.30;;;;;;4958602;28;20415;-74
2022/03/30 07:18:50;;;;;;;34.05;7.57;;;11.90;74.90;;;;;;4959130;28;20074;-73
2022/03/30 07:21:16;;;;;;;31.50;8.15;;;12.20;72.50;;;;;;4976789;28;20460;-73
2022/03/30 07:23:42;;;;;;;34.72;7.53;;;12.40;71.20;;;;;;4983995;28;20026;-74
2022/03/30 07:26:08;;;;;;;33.50;8.27;;;12.50;71.00;;;;;;4961987;28;20046;-74
2022/03/30 07:28:35;;;;;;;33.40;7.95;;;12.60;71.30;;;;;;4942223;28;20122;-73
2022/03/30 07:31:01;;;;;;;32.33;8.07;;;12.60;70.10;;;;;;4975658;28;20030;-73
2022/03/30 07:33:27;;;;;;;33.10;7.90;;;12.80;69.40;;;;;;4958338;28;20018;-73
2022/03/30 07:35:52;;;;;;;31.73;8.68;;;12.80;69.30;;;;;;4958303;28;20122;-73
2022/03/30 07:38:20;;;;;;;31.42;8.15;;;13.00;68.60;;;;;;4975299;28;20026;-73
2022/03/30 07:40:47;;;;;;;40.05;8.68;;;13.00;68.00;;;;;;4958505;28;20037;-73
2022/03/30 07:43:15;;;;;;;33.03;8.27;;;12.90;68.40;;;;;;4975415;28;20033;-73
2022/03/30 07:45:41;;;;;;;29.27;8.18;;;12.80;68.60;;;;;;4957685;28;20178;-73
2022/03/30 07:48:08;;;;;;;34.10;7.10;;;12.70;67.90;;;;;;4957976;28;20029;-73
2022/03/30 07:50:34;;;;;;;24.92;7.70;;;12.20;66.20;;;;;;4975319;28;20030;-74
2022/03/30 07:53:00;;;;;;;27.17;7.95;;;11.90;68.40;;;;;;4957589;28;20027;-73
2022/03/30 07:55:28;;;;;;;27.45;8.25;;;11.70;69.80;;;;;;4975114;28;20106;-73
2022/03/30 07:57:54;;;;;;;26.73;7.72;;;11.70;70.00;;;;;;4975083;28;20019;-73
2022/03/30 08:00:21;;;;;;;22.15;6.65;;;11.90;70.20;;;;;;4975024;28;20023;-74
2022/03/30 08:02:47;;;;;;;24.42;6.60;;;11.80;67.70;;;;;;4957549;28;20023;-76
2022/03/30 08:05:14;;;;;;;23.35;6.93;;;11.60;68.80;;;;;;4957627;28;20484;-75
2022/03/30 08:07:42;;;;;;;33.28;7.30;;;11.40;69.40;;;;;;4974532;28;20038;-76
2022/03/30 08:10:09;;;;;;;25.35;7.18;;;11.10;70.90;;;;;;4974972;28;20061;-77
2022/03/30 08:12:36;;;;;;;17.55;6.22;;;11.00;71.30;;;;;;4974940;28;20059;-76
2022/03/30 08:15:02;;;;;;;20.90;5.95;;;10.90;71.30;;;;;;4956857;28;20109;-77
2022/03/30 08:17:29;;;;;;;23.55;6.03;;;10.80;71.80;;;;;;4957132;28;20078;-77
2022/03/30 08:19:57;;;;;;;27.42;6.95;;;10.70;73.00;;;;;;4974854;28;20019;-77
2022/03/30 08:22:26;;;;;;;24.63;7.10;;;10.70;72.80;;;;;;4974487;28;20033;-76
2022/03/30 08:24:56;;;;;;;23.70;6.55;;;10.70;72.60;;;;;;4977299;28;20483;-75
2022/03/30 08:27:24;;;;;;;22.35;6.35;;;10.60;72.40;;;;;;4993278;28;20026;-77
2022/03/30 08:29:52;;;;;;;29.67;6.25;;;10.60;73.50;;;;;;4977736;28;20027;-76
2022/03/30 08:32:19;;;;;;;28.83;6.38;;;10.60;73.70;;;;;;4957503;28;20031;-76
2022/03/30 08:34:45;;;;;;;19.02;5.68;;;10.40;73.40;;;;;;4957041;28;20026;-76
2022/03/30 08:37:12;;;;;;;20.77;5.40;;;10.30;73.60;;;;;;4974659;28;20023;-76
2022/03/30 08:39:38;;;;;;;23.33;5.47;;;10.10;74.20;;;;;;4957315;28;20090;-76
2022/03/30 08:42:06;;;;;;;23.58;5.05;;;10.10;75.00;;;;;;4956977;28;20435;-75
2022/03/30 08:44:34;;;;;;;17.13;6.03;;;10.10;74.60;;;;;;4974315;28;20022;-76
2022/03/30 08:47:01;;;;;;;21.08;5.10;;;10.20;74.40;;;;;;4974336;28;20516;-76
2022/03/30 08:49:27;;;;;;;21.00;5.22;;;10.30;74.00;;;;;;4957167;28;20026;-77
2022/03/30 08:51:54;;;;;;;17.35;4.45;;;10.30;74.20;;;;;;4956947;28;20039;-77
2022/03/30 08:54:21;;;;;;;23.55;5.35;;;10.30;73.80;;;;;;4974287;28;20074;-76
2022/03/30 08:56:48;;;;;;;18.70;5.30;;;10.30;74.40;;;;;;4974265;28;20114;-76
2022/03/30 08:59:22;;;;;;;17.77;4.65;;;10.20;74.70;;;;;;4959440;28;20089;-77
2022/03/30 09:01:49;;;;;;;11.73;4.32;;;10.20;74.50;;;;;;4976864;28;20069;-76
2022/03/30 09:04:17;;;;;;;18.27;4.43;;;10.30;74.30;;;;;;4956856;28;20034;-76
2022/03/30 09:06:49;;;;;;;15.05;4.50;;;10.30;74.30;;;;;;4974257;28;20075;-77
2022/03/30 09:09:25;;;;;;;15.30;4.35;;;10.30;74.80;;;;;;4974138;28;20461;-76
2022/03/30 09:11:55;;;;;;;12.85;3.47;;;10.30;75.20;;;;;;4974051;28;20023;-76
2022/03/30 09:14:22;;;;;;;12.80;3.95;;;10.30;74.70;;;;;;4956611;28;20031;-77
2022/03/30 09:16:52;;;;;;;10.95;3.75;;;10.30;74.70;;;;;;4973841;28;20050;-74
2022/03/30 09:19:20;;;;;;;14.95;3.80;;;10.30;74.50;;;;;;4956447;28;20031;-76
2022/03/30 09:21:51;;;;;;;11.25;3.63;;;10.20;75.00;;;;;;4973418;28;20109;-77
2022/03/30 09:24:19;;;;;;;15.05;3.88;;;10.30;74.20;;;;;;4973877;28;20035;-76
2022/03/30 09:26:46;;;;;;;12.95;4.40;;;10.30;74.30;;;;;;4973859;28;20062;-75
2022/03/30 09:29:13;;;;;;;16.25;4.63;;;10.30;75.00;;;;;;4957131;28;20471;-77
2022/03/30 09:31:41;;;;;;;16.35;4.32;;;10.40;75.20;;;;;;4973849;28;20057;-78
2022/03/30 09:34:09;;;;;;;16.83;3.83;;;10.50;75.60;;;;;;4956537;28;20026;-77
2022/03/30 09:36:40;;;;;;;12.60;3.67;;;10.50;75.20;;;;;;4956429;28;20027;-75
2022/03/30 09:39:08;;;;;;;11.63;3.65;;;10.60;74.00;;;;;;4973823;28;20427;-76
2022/03/30 09:41:50;;;;;;;15.32;4.20;;;10.50;74.40;;;;;;4969270;28;20031;-79
2022/03/30 09:44:16;;;;;;;14.95;3.60;;;10.40;74.50;;;;;;4944324;28;20609;-78
2022/03/30 09:46:56;;;;;;;19.50;3.95;;;10.50;74.80;;;;;;4960141;28;20035;-78
2022/03/30 09:49:37;;;;;;;13.88;3.75;;;10.50;74.80;;;;;;4958231;29;20110;-77
2022/03/30 09:52:15;;;;;;;22.70;4.60;;;10.60;74.70;;;;;;4941389;29;20110;-76
2022/03/30 09:54:47;;;;;;;15.13;4.20;;;10.60;74.50;;;;;;4959638;29;20612;-80
2022/03/30 09:57:42;;;;;;;15.38;5.50;;;10.60;74.60;;;;;;4942237;29;20134;-76
2022/03/30 10:00:18;;;;;;;16.05;5.00;;;10.60;74.10;;;;;;4955265;29;20405;-79
2022/03/30 10:02:49;;;;;;;15.52;6.07;;;10.60;75.00;;;;;;4957855;29;20026;-75
2022/03/30 10:05:20;;;;;;;20.65;6.10;;;10.60;74.70;;;;;;4940449;29;20137;-76
2022/03/30 10:07:47;;;;;;;19.27;6.25;;;10.60;74.60;;;;;;4940673;29;20032;-76
2022/03/30 10:10:17;;;;;;;23.23;6.57;;;10.50;76.20;;;;;;4957594;29;20034;-79
2022/03/30 10:12:43;;;;;;;18.42;5.60;;;10.50;76.10;;;;;;4957698;29;20023;-79
2022/03/30 10:15:11;;;;;;;20.50;5.90;;;10.60;75.10;;;;;;4937489;29;20066;-78
2022/03/30 10:17:38;;;;;;;16.45;5.18;;;10.60;74.60;;;;;;4938486;29;20024;-77
2022/03/30 10:20:06;;;;;;;12.27;5.13;;;10.70;74.90;;;;;;4931545;29;20032;-76
2022/03/30 10:22:51;;;;;;;17.95;5.20;;;10.60;73.70;;;;;;4928090;29;20035;-77
2022/03/30 10:25:35;;;;;;;16.83;5.20;;;10.70;74.40;;;;;;4921237;29;20140;-77
2022/03/30 10:28:31;;;;;;;16.83;5.78;;;10.80;73.40;;;;;;4938683;29;20031;-77
2022/03/30 10:30:58;;;;;;;20.60;5.60;;;10.80;73.50;;;;;;4938582;29;20024;-76
2022/03/30 10:33:44;;;;;;;15.00;5.63;;;10.70;74.30;;;;;;4921053;29;20031;-79
2022/03/30 10:36:32;;;;;;;18.45;5.70;;;10.80;73.80;;;;;;4921196;29;20491;-81
2022/03/30 10:39:16;;;;;;;23.73;7.40;;;10.70;74.20;;;;;;4921196;29;20031;-75
2022/03/30 10:42:04;;;;;;;19.02;5.65;;;10.70;74.60;;;;;;4920770;29;20023;-75
2022/03/30 10:44:46;;;;;;;16.73;6.13;;;10.80;73.90;;;;;;4921081;29;20028;-75
2022/03/30 10:47:25;;;;;;;23.38;6.00;;;10.90;74.20;;;;;;4921007;29;20400;-75
2022/03/30 10:49:59;;;;;;;14.05;5.85;;;10.90;75.00;;;;;;4920523;29;20031;-76
2022/03/30 10:52:32;;;;;;;20.58;5.35;;;11.00;74.00;;;;;;4937555;29;20047;-74
2022/03/30 10:55:12;;;;;;;16.15;5.68;;;11.00;74.20;;;;;;4920578;29;20024;-75
2022/03/30 10:57:49;;;;;;;9.65;4.95;;;11.10;74.10;;;;;;4937373;29;20038;-76
2022/03/30 11:00:21;;;;;;;16.13;5.30;;;11.20;73.30;;;;;;4943767;29;20038;-76
2022/03/30 11:02:46;;;;;;;15.88;5.13;;;11.00;72.80;;;;;;4942841;29;20028;-74
2022/03/30 11:05:15;;;;;;;16.15;4.95;;;11.00;73.00;;;;;;4942990;29;20023;-73
2022/03/30 11:07:42;;;;;;;15.35;5.50;;;11.00;72.80;;;;;;4943623;29;20020;-76
2022/03/30 11:10:45;;;;;;;18.60;5.20;;;11.10;72.70;;;;;;4943091;29;20039;-75
2022/03/30 11:13:12;;;;;;;15.45;5.07;;;11.10;72.80;;;;;;4918458;29;20047;-75
2022/03/30 11:16:11;;;;;;;15.77;5.95;;;11.40;72.50;;;;;;4956101;28;20054;-75
2022/03/30 11:18:58;;;;;;;10.27;5.25;;;11.40;73.60;;;;;;4990164;28;20031;-75
2022/03/30 11:21:24;;;;;;;21.20;6.78;;;11.60;71.60;;;;;;4981451;28;20085;-75
2022/03/30 11:23:58;;;;;;;21.88;6.40;;;11.80;70.60;;;;;;4977158;28;20087;-74
2022/03/30 11:26:44;;;;;;;15.05;5.45;;;12.00;70.50;;;;;;4978111;28;20031;-74
2022/03/30 11:29:49;;;;;;;20.13;6.68;;;12.00;69.50;;;;;;4978685;28;20102;-74
2022/03/30 11:32:30;;;;;;;15.50;5.72;;;11.90;69.40;;;;;;4967741;28;20356;-75
2022/03/30 11:34:57;;;;;;;16.70;6.10;;;12.00;69.20;;;;;;4961549;28;20106;-77
2022/03/30 11:37:35;;;;;;;14.63;5.20;;;12.00;69.20;;;;;;4978957;28;20105;-76
2022/03/30 11:40:08;;;;;;;23.60;8.18;;;12.00;68.90;;;;;;4960868;28;20667;-75
2022/03/30 11:42:36;;;;;;;18.85;6.85;;;12.00;69.70;;;;;;4958433;28;20479;-74
2022/03/30 11:45:15;;;;;;;19.40;6.30;;;12.00;68.70;;;;;;4958412;28;20144;-78
2022/03/30 11:47:52;;;;;;;16.33;5.72;;;12.10;69.30;;;;;;4975471;28;20062;-77
2022/03/30 11:50:34;;;;;;;11.75;5.10;;;12.10;69.50;;;;;;4956739;28;20026;-78
2022/03/30 11:53:02;;;;;;;15.70;5.35;;;12.30;69.70;;;;;;4969518;28;20435;-75
2022/03/30 11:55:29;;;;;;;22.80;6.22;;;12.40;66.60;;;;;;4950644;28;20527;-75
2022/03/30 11:57:57;;;;;;;18.88;6.00;;;12.30;68.70;;;;;;4975170;28;20032;-74
2022/03/30 12:00:26;;;;;;;22.13;6.10;;;12.40;68.30;;;;;;4975001;28;20023;-73
2022/03/30 12:02:54;;;;;;;16.27;5.32;;;12.50;67.60;;;;;;4957555;28;20027;-75
2022/03/30 12:05:21;;;;;;;15.13;6.35;;;12.50;67.80;;;;;;4957305;28;20093;-74
2022/03/30 12:07:55;;;;;;;13.25;6.05;;;12.50;67.90;;;;;;4974448;28;20026;-74
2022/03/30 12:10:27;;;;;;;15.73;5.32;;;12.70;66.50;;;;;;4956336;28;20038;-75
2022/03/30 12:12:54;;;;;;;20.95;5.88;;;12.70;65.30;;;;;;4957178;28;20460;-74
2022/03/30 12:15:20;;;;;;;15.38;5.63;;;12.70;66.30;;;;;;4957198;28;20142;-75
2022/03/30 12:17:51;;;;;;;14.57;5.30;;;12.80;65.70;;;;;;4957426;28;20027;-75
2022/03/30 12:20:34;;;;;;;16.55;7.65;;;12.70;64.40;;;;;;4974644;28;20502;-74
2022/03/30 12:23:04;;;;;;;12.25;5.55;;;12.70;64.10;;;;;;4957745;28;20034;-74
2022/03/30 12:25:36;;;;;;;16.55;5.68;;;12.60;65.60;;;;;;4956844;28;20046;-74
2022/03/30 12:28:04;;;;;;;17.83;5.72;;;12.60;65.80;;;;;;4975205;28;20483;-74
2022/03/30 12:30:32;;;;;;;17.95;6.35;;;12.40;66.90;;;;;;4957144;28;20031;-75
2022/03/30 12:32:59;;;;;;;14.13;5.50;;;12.20;67.50;;;;;;4957517;28;20545;-75
2022/03/30 12:35:34;;;;;;;17.10;6.40;;;12.30;67.50;;;;;;4957408;28;20027;-74
2022/03/30 12:38:07;;;;;;;14.55;5.90;;;12.40;67.00;;;;;;4957306;28;20484;-75
2022/03/30 12:40:35;;;;;;;14.80;6.05;;;12.40;68.20;;;;;;4957164;28;20058;-75
2022/03/30 12:43:02;;;;;;;15.00;6.20;;;12.50;67.90;;;;;;4957233;28;20023;-76
2022/03/30 12:45:27;;;;;;;17.65;5.57;;;12.70;67.00;;;;;;4957116;28;20373;-76
2022/03/30 12:47:57;;;;;;;14.73;5.50;;;12.80;67.20;;;;;;4957530;28;20027;-76
2022/03/30 12:50:34;;;;;;;15.07;8.32;;;13.00;65.70;;;;;;4956953;28;20035;-76
2022/03/30 12:53:15;;;;;;;14.52;6.82;;;13.20;65.90;;;;;;4956980;28;20419;-75
2022/03/30 12:55:41;;;;;;;14.00;5.55;;;13.50;64.80;;;;;;4957649;28;20023;-74